sensor_id;sensor_type;location;lat;lon;timestamp;pressure;altitude;pressure_sealevel;temperature;humidity
35655;BME280;21773;50.010;19.972;2022-09-11T00:00:21;98291.56;;;22.10;49.90
35655;BME280;21773;50.010;19.972;2022-09-11T00:03:24;98289.66;;;22.11;50.43
35655;BME280;21773;50.010;19.972;2022-09-11T00:06:29;98294.31;;;22.10;50.01
35655;BME280;21773;50.010;19.972;2022-09-11T00:09:35;98293.50;;;22.10;49.91
35655;BME280;21773;50.010;19.972;2022-09-11T00:12:38;98291.09;;;22.08;50.15
35655;BME280;21773;50.010;19.972;2022-09-11T00:15:44;98286.72;;;22.07;49.96
35655;BME280;21773;50.010;19.972;2022-09-11T00:18:49;98284.28;;;22.06;49.67
35655;BME280;21773;50.010;19.972;2022-09-11T00:21:52;98286.53;;;22.03;49.88
35655;BME280;21773;50.010;19.972;2022-09-11T00:24:58;98282.47;;;22.01;49.47
35655;BME280;21773;50.010;19.972;2022-09-11T00:28:02;98285.03;;;21.97;49.74
35655;BME280;21773;50.010;19.972;2022-09-11T00:31:07;98279.03;;;21.95;49.55
35655;BME280;21773;50.010;19.972;2022-09-11T00:34:13;98277.19;;;21.91;49.84
35655;BME280;21773;50.010;19.972;2022-09-11T00:37:16;98290.41;;;21.89;50.09
35655;BME280;21773;50.010;19.972;2022-09-11T00:40:21;98289.91;;;21.87;49.87
35655;BME280;21773;50.010;19.972;2022-09-11T00:43:27;98285.88;;;21.84;49.51
35655;BME280;21773;50.010;19.972;2022-09-11T00:46:35;98290.53;;;21.84;49.93
35655;BME280;21773;50.010;19.972;2022-09-11T00:49:42;98265.06;;;21.70;49.97
35655;BME280;21773;50.010;19.972;2022-09-11T00:52:51;98285.66;;;21.81;50.01
35655;BME280;21773;50.010;19.972;2022-09-11T00:56:02;98289.22;;;21.81;50.13
35655;BME280;21773;50.010;19.972;2022-09-11T00:59:06;98276.59;;;21.80;50.06
35655;BME280;21773;50.010;19.972;2022-09-11T01:02:11;98275.78;;;21.80;50.67
35655;BME280;21773;50.010;19.972;2022-09-11T01:05:18;98277.75;;;21.79;50.33
35655;BME280;21773;50.010;19.972;2022-09-11T01:08:23;98257.44;;;21.67;50.45
35655;BME280;21773;50.010;19.972;2022-09-11T01:11:40;98271.44;;;21.79;50.80
35655;BME280;21773;50.010;19.972;2022-09-11T01:14:53;98285.66;;;21.81;50.69
35655;BME280;21773;50.010;19.972;2022-09-11T01:18:02;98276.31;;;21.82;50.74
35655;BME280;21773;50.010;19.972;2022-09-11T01:21:27;98283.13;;;21.84;50.93
35655;BME280;21773;50.010;19.972;2022-09-11T01:24:53;98274.25;;;21.87;51.32
35655;BME280;21773;50.010;19.972;2022-09-11T01:28:03;98273.63;;;21.90;51.53
35655;BME280;21773;50.010;19.972;2022-09-11T01:31:10;98268.47;;;21.89;51.22
35655;BME280;21773;50.010;19.972;2022-09-11T01:34:20;98262.47;;;21.87;51.34
35655;BME280;21773;50.010;19.972;2022-09-11T01:37:32;98270.50;;;21.97;51.43
35655;BME280;21773;50.010;19.972;2022-09-11T01:40:44;98271.00;;;21.99;51.32
35655;BME280;21773;50.010;19.972;2022-09-11T01:43:56;98266.28;;;21.99;51.70
35655;BME280;21773;50.010;19.972;2022-09-11T01:47:08;98269.56;;;22.01;51.60
35655;BME280;21773;50.010;19.972;2022-09-11T01:50:15;98272.00;;;22.03;51.43
35655;BME280;21773;50.010;19.972;2022-09-11T01:53:24;98269.75;;;22.05;51.53
35655;BME280;21773;50.010;19.972;2022-09-11T01:56:34;98260.38;;;22.06;51.54
35655;BME280;21773;50.010;19.972;2022-09-11T01:59:43;98265.56;;;22.08;51.65
35655;BME280;21773;50.010;19.972;2022-09-11T02:02:51;98268.00;;;22.09;51.77
35655;BME280;21773;50.010;19.972;2022-09-11T02:06:00;98261.72;;;22.09;51.50
35655;BME280;21773;50.010;19.972;2022-09-11T02:09:08;98260.91;;;22.08;51.53
35655;BME280;21773;50.010;19.972;2022-09-11T02:12:16;98248.78;;;22.09;51.46
35655;BME280;21773;50.010;19.972;2022-09-11T02:15:24;98256.22;;;22.09;51.47
35655;BME280;21773;50.010;19.972;2022-09-11T02:18:40;98252.44;;;22.04;51.61
35655;BME280;21773;50.010;19.972;2022-09-11T02:21:46;98251.16;;;22.02;51.71
35655;BME280;21773;50.010;19.972;2022-09-11T02:24:52;98261.31;;;22.01;51.78
35655;BME280;21773;50.010;19.972;2022-09-11T02:27:55;98252.28;;;22.01;51.88
35655;BME280;21773;50.010;19.972;2022-09-11T02:31:01;98252.28;;;22.01;51.80
35655;BME280;21773;50.010;19.972;2022-09-11T02:34:08;98253.72;;;21.98;52.21
35655;BME280;21773;50.010;19.972;2022-09-11T02:37:20;98238.38;;;21.97;51.78
35655;BME280;21773;50.010;19.972;2022-09-11T02:40:38;98232.88;;;21.97;51.98
35655;BME280;21773;50.010;19.972;2022-09-11T02:43:55;98234.28;;;21.95;51.89
35655;BME280;21773;50.010;19.972;2022-09-11T02:47:10;98234.28;;;21.95;51.86
35655;BME280;21773;50.010;19.972;2022-09-11T02:50:27;98233.28;;;21.91;52.03
35655;BME280;21773;50.010;19.972;2022-09-11T02:53:40;98236.00;;;21.91;51.98
35655;BME280;21773;50.010;19.972;2022-09-11T02:56:53;98246.69;;;21.92;52.02
35655;BME280;21773;50.010;19.972;2022-09-11T03:00:00;98234.28;;;21.95;52.28
35655;BME280;21773;50.010;19.972;2022-09-11T03:03:07;98240.59;;;21.95;52.13
35655;BME280;21773;50.010;19.972;2022-09-11T03:06:17;98244.16;;;21.96;52.66
35655;BME280;21773;50.010;19.972;2022-09-11T03:09:20;98241.41;;;21.96;52.57
35655;BME280;21773;50.010;19.972;2022-09-11T03:12:28;98238.19;;;21.94;52.38
35655;BME280;21773;50.010;19.972;2022-09-11T03:15:32;98235.44;;;21.94;52.44
35655;BME280;21773;50.010;19.972;2022-09-11T03:18:37;98232.69;;;21.94;52.45
35655;BME280;21773;50.010;19.972;2022-09-11T03:21:41;98230.22;;;21.92;52.28
35655;BME280;21773;50.010;19.972;2022-09-11T03:24:45;98236.53;;;21.93;52.37
35655;BME280;21773;50.010;19.972;2022-09-11T03:27:49;98241.50;;;21.91;52.30
35655;BME280;21773;50.010;19.972;2022-09-11T03:30:52;98238.75;;;21.91;52.40
35655;BME280;21773;50.010;19.972;2022-09-11T03:34:00;98245.06;;;21.91;52.52
35655;BME280;21773;50.010;19.972;2022-09-11T03:37:03;98238.28;;;21.89;52.44
35655;BME280;21773;50.010;19.972;2022-09-11T03:40:08;98245.19;;;21.86;51.97
35655;BME280;21773;50.010;19.972;2022-09-11T03:43:11;98237.75;;;21.87;52.08
35655;BME280;21773;50.010;19.972;2022-09-11T03:46:15;98241.31;;;21.87;52.15
35655;BME280;21773;50.010;19.972;2022-09-11T03:49:22;98242.44;;;21.86;52.15
35655;BME280;21773;50.010;19.972;2022-09-11T03:52:25;98244.06;;;21.87;51.98
35655;BME280;21773;50.010;19.972;2022-09-11T03:55:31;98212.44;;;21.68;52.17
35655;BME280;21773;50.010;19.972;2022-09-11T03:58:35;98240.22;;;21.88;52.07
35655;BME280;21773;50.010;19.972;2022-09-11T04:01:39;98248.09;;;21.90;52.18
35655;BME280;21773;50.010;19.972;2022-09-11T04:04:44;98248.09;;;21.90;52.08
35655;BME280;21773;50.010;19.972;2022-09-11T04:07:47;98251.09;;;21.93;51.83
35655;BME280;21773;50.010;19.972;2022-09-11T04:10:55;98252.69;;;21.94;52.11
35655;BME280;21773;50.010;19.972;2022-09-11T04:14:01;98253.22;;;21.96;52.21
35655;BME280;21773;50.010;19.972;2022-09-11T04:17:04;98243.84;;;21.97;52.02
35655;BME280;21773;50.010;19.972;2022-09-11T04:20:12;98244.97;;;21.96;51.94
35655;BME280;21773;50.010;19.972;2022-09-11T04:23:18;98222.13;;;21.87;51.76
35655;BME280;21773;50.010;19.972;2022-09-11T04:26:23;98253.91;;;22.02;52.01
35655;BME280;21773;50.010;19.972;2022-09-11T04:29:32;98238.66;;;21.96;52.25
35655;BME280;21773;50.010;19.972;2022-09-11T04:32:36;98255.19;;;22.04;52.21
35655;BME280;21773;50.010;19.972;2022-09-11T04:35:40;98258.44;;;22.07;52.23
35655;BME280;21773;50.010;19.972;2022-09-11T04:38:45;98259.75;;;22.09;52.28
35655;BME280;21773;50.010;19.972;2022-09-11T04:41:50;98255.06;;;22.10;51.94
35655;BME280;21773;50.010;19.972;2022-09-11T04:44:55;98256.69;;;22.11;52.14
35655;BME280;21773;50.010;19.972;2022-09-11T04:47:59;98251.22;;;22.11;51.93
35655;BME280;21773;50.010;19.972;2022-09-11T04:51:05;98244.84;;;22.01;51.98
35655;BME280;21773;50.010;19.972;2022-09-11T04:54:12;98252.31;;;22.10;51.95
35655;BME280;21773;50.010;19.972;2022-09-11T04:57:16;98248.97;;;22.13;52.28
35655;BME280;21773;50.010;19.972;2022-09-11T05:00:19;98255.28;;;22.13;51.94
35655;BME280;21773;50.010;19.972;2022-09-11T05:03:23;98259.03;;;22.17;52.19
35655;BME280;21773;50.010;19.972;2022-09-11T05:06:31;98249.28;;;22.11;52.11
35655;BME280;21773;50.010;19.972;2022-09-11T05:09:36;98258.09;;;22.22;52.10
35655;BME280;21773;50.010;19.972;2022-09-11T05:12:40;98253.41;;;22.22;52.17
35655;BME280;21773;50.010;19.972;2022-09-11T05:15:43;98255.03;;;22.23;52.15
35655;BME280;21773;50.010;19.972;2022-09-11T05:18:49;98249.22;;;22.25;52.19
35655;BME280;21773;50.010;19.972;2022-09-11T05:21:56;98256.03;;;22.27;51.75
35655;BME280;21773;50.010;19.972;2022-09-11T05:24:59;98258.44;;;22.29;51.85
35655;BME280;21773;50.010;19.972;2022-09-11T05:28:04;98247.97;;;22.31;51.59
35655;BME280;21773;50.010;19.972;2022-09-11T05:31:10;98249.91;;;22.30;51.72
35655;BME280;21773;50.010;19.972;2022-09-11T05:34:14;98255.09;;;22.32;51.51
35655;BME280;21773;50.010;19.972;2022-09-11T05:37:20;98254.75;;;22.33;51.89
35655;BME280;21773;50.010;19.972;2022-09-11T05:40:23;98253.63;;;22.34;51.97
35655;BME280;21773;50.010;19.972;2022-09-11T05:43:27;98251.69;;;22.35;52.00
35655;BME280;21773;50.010;19.972;2022-09-11T05:46:31;98251.09;;;22.38;52.19
35655;BME280;21773;50.010;19.972;2022-09-11T05:49:36;98249.81;;;22.44;51.69
35655;BME280;21773;50.010;19.972;2022-09-11T05:52:41;98252.75;;;22.48;52.04
35655;BME280;21773;50.010;19.972;2022-09-11T05:55:45;98254.34;;;22.48;51.65
35655;BME280;21773;50.010;19.972;2022-09-11T05:58:51;98252.94;;;22.51;51.55
35655;BME280;21773;50.010;19.972;2022-09-11T06:02:00;98243.88;;;22.51;51.67
35655;BME280;21773;50.010;19.972;2022-09-11T06:05:13;98250.66;;;22.53;51.40
35655;BME280;21773;50.010;19.972;2022-09-11T06:08:18;98251.69;;;22.57;51.72
35655;BME280;21773;50.010;19.972;2022-09-11T06:11:22;98260.91;;;22.61;51.40
35655;BME280;21773;50.010;19.972;2022-09-11T06:14:25;98260.44;;;22.68;51.77
35655;BME280;21773;50.010;19.972;2022-09-11T06:17:29;98262.78;;;22.74;51.10
35655;BME280;21773;50.010;19.972;2022-09-11T06:20:34;98263.16;;;22.81;51.10
35655;BME280;21773;50.010;19.972;2022-09-11T06:23:43;98264.59;;;22.87;51.00
35655;BME280;21773;50.010;19.972;2022-09-11T06:26:47;98264.16;;;22.94;51.07
35655;BME280;21773;50.010;19.972;2022-09-11T06:29:51;98268.09;;;23.02;50.77
35655;BME280;21773;50.010;19.972;2022-09-11T06:32:56;98267.00;;;23.11;50.85
35655;BME280;21773;50.010;19.972;2022-09-11T06:36:01;98270.25;;;23.22;50.54
35655;BME280;21773;50.010;19.972;2022-09-11T06:39:06;98263.97;;;23.30;50.36
35655;BME280;21773;50.010;19.972;2022-09-11T06:42:10;98271.25;;;23.35;50.23
35655;BME280;21773;50.010;19.972;2022-09-11T06:45:13;98266.72;;;23.39;49.86
35655;BME280;21773;50.010;19.972;2022-09-11T06:48:18;98265.78;;;23.43;49.53
35655;BME280;21773;50.010;19.972;2022-09-11T06:51:22;98258.84;;;23.46;49.25
35655;BME280;21773;50.010;19.972;2022-09-11T06:54:28;98266.16;;;23.50;49.29
35655;BME280;21773;50.010;19.972;2022-09-11T06:57:32;98259.34;;;23.56;49.66
35655;BME280;21773;50.010;19.972;2022-09-11T07:00:45;98244.97;;;23.59;49.10
35655;BME280;21773;50.010;19.972;2022-09-11T07:03:50;98248.53;;;23.60;48.89
35655;BME280;21773;50.010;19.972;2022-09-11T07:06:55;98250.94;;;23.61;48.72
35655;BME280;21773;50.010;19.972;2022-09-11T07:10:00;98244.16;;;23.50;48.81
35655;BME280;21773;50.010;19.972;2022-09-11T07:13:06;98258.38;;;23.61;48.90
35655;BME280;21773;50.010;19.972;2022-09-11T07:16:10;98267.94;;;23.63;48.90
35655;BME280;21773;50.010;19.972;2022-09-11T07:19:16;98259.38;;;23.65;48.81
35655;BME280;21773;50.010;19.972;2022-09-11T07:22:20;98255.63;;;23.61;49.22
35655;BME280;21773;50.010;19.972;2022-09-11T07:25:25;98257.09;;;23.67;48.87
35655;BME280;21773;50.010;19.972;2022-09-11T07:28:29;98258.72;;;23.68;48.69
35655;BME280;21773;50.010;19.972;2022-09-11T07:31:33;98247.88;;;23.71;48.70
35655;BME280;21773;50.010;19.972;2022-09-11T07:34:37;98247.09;;;23.80;48.55
35655;BME280;21773;50.010;19.972;2022-09-11T07:37:43;98255.00;;;23.90;48.16
35655;BME280;21773;50.010;19.972;2022-09-11T07:40:54;98252.06;;;23.95;47.91
35655;BME280;21773;50.010;19.972;2022-09-11T07:43:58;98259.22;;;23.96;47.89
35655;BME280;21773;50.010;19.972;2022-09-11T07:47:04;98256.00;;;23.94;47.97
35655;BME280;21773;50.010;19.972;2022-09-11T07:50:13;98255.19;;;23.93;48.05
35655;BME280;21773;50.010;19.972;2022-09-11T07:53:17;98261.81;;;23.92;48.37
35655;BME280;21773;50.010;19.972;2022-09-11T07:56:24;98273.94;;;23.91;48.26
35655;BME280;21773;50.010;19.972;2022-09-11T07:59:29;98265.84;;;23.86;48.64
35655;BME280;21773;50.010;19.972;2022-09-11T08:02:33;98270.06;;;23.84;48.33
35655;BME280;21773;50.010;19.972;2022-09-11T08:05:37;98267.13;;;23.80;48.80
35655;BME280;21773;50.010;19.972;2022-09-11T08:08:44;98273.59;;;23.75;48.62
35655;BME280;21773;50.010;19.972;2022-09-11T08:11:50;98275.41;;;23.71;48.77
35655;BME280;21773;50.010;19.972;2022-09-11T08:14:55;98281.06;;;23.66;48.79
35655;BME280;21773;50.010;19.972;2022-09-11T08:17:58;98275.84;;;23.56;48.75
35655;BME280;21773;50.010;19.972;2022-09-11T08:21:04;98279.56;;;23.52;48.99
35655;BME280;21773;50.010;19.972;2022-09-11T08:24:15;98286.84;;;23.48;49.47
35655;BME280;21773;50.010;19.972;2022-09-11T08:27:21;98274.56;;;23.45;49.83
35655;BME280;21773;50.010;19.972;2022-09-11T08:30:24;98277.78;;;23.47;49.95
35655;BME280;21773;50.010;19.972;2022-09-11T08:33:28;98249.09;;;23.31;50.09
35655;BME280;21773;50.010;19.972;2022-09-11T08:36:32;98273.75;;;23.53;50.24
35655;BME280;21773;50.010;19.972;2022-09-11T08:39:36;98277.78;;;23.56;50.12
35655;BME280;21773;50.010;19.972;2022-09-11T08:42:44;98281.19;;;23.61;50.33
35655;BME280;21773;50.010;19.972;2022-09-11T08:45:50;98281.06;;;23.66;50.15
35655;BME280;21773;50.010;19.972;2022-09-11T08:49:03;98285.28;;;23.72;50.20
35655;BME280;21773;50.010;19.972;2022-09-11T08:52:13;98283.66;;;23.80;50.26
35655;BME280;21773;50.010;19.972;2022-09-11T08:55:24;98290.00;;;23.89;50.20
35655;BME280;21773;50.010;19.972;2022-09-11T08:58:39;98295.81;;;23.96;49.74
35655;BME280;21773;50.010;19.972;2022-09-11T09:01:55;98287.41;;;24.01;49.88
35655;BME280;21773;50.010;19.972;2022-09-11T09:05:13;98281.41;;;24.08;49.53
35655;BME280;21773;50.010;19.972;2022-09-11T09:08:36;98285.44;;;24.10;49.52
35655;BME280;21773;50.010;19.972;2022-09-11T09:11:50;98289.34;;;24.09;49.49
35655;BME280;21773;50.010;19.972;2022-09-11T09:15:11;98286.09;;;24.07;49.56
35655;BME280;21773;50.010;19.972;2022-09-11T09:18:26;98291.31;;;24.09;49.70
35655;BME280;21773;50.010;19.972;2022-09-11T09:21:36;98280.59;;;24.07;49.01
35655;BME280;21773;50.010;19.972;2022-09-11T09:24:47;98293.41;;;24.21;49.43
35655;BME280;21773;50.010;19.972;2022-09-11T09:27:55;98299.09;;;24.33;49.43
35655;BME280;21773;50.010;19.972;2022-09-11T09:31:05;98301.50;;;24.43;49.00
35655;BME280;21773;50.010;19.972;2022-09-11T09:34:16;98299.19;;;24.53;49.11
35655;BME280;21773;50.010;19.972;2022-09-11T09:37:22;98297.59;;;24.61;48.37
35655;BME280;21773;50.010;19.972;2022-09-11T09:40:29;98295.78;;;24.65;48.16
35655;BME280;21773;50.010;19.972;2022-09-11T09:43:44;98297.25;;;24.71;47.81
35655;BME280;21773;50.010;19.972;2022-09-11T09:46:54;98307.28;;;24.76;47.61
35655;BME280;21773;50.010;19.972;2022-09-11T09:49:58;98302.72;;;24.80;47.51
35655;BME280;21773;50.010;19.972;2022-09-11T09:53:05;98295.94;;;24.77;47.28
35655;BME280;21773;50.010;19.972;2022-09-11T09:56:15;98300.78;;;24.80;47.22
35655;BME280;21773;50.010;19.972;2022-09-11T09:59:24;98305.63;;;24.83;47.14
35655;BME280;21773;50.010;19.972;2022-09-11T10:02:37;98299.97;;;24.88;47.28
35655;BME280;21773;50.010;19.972;2022-09-11T10:05:43;98298.16;;;24.92;47.33
35655;BME280;21773;50.010;19.972;2022-09-11T10:08:46;98287.00;;;24.80;46.84
35655;BME280;21773;50.010;19.972;2022-09-11T10:11:53;98271.91;;;24.78;46.88
35655;BME280;21773;50.010;19.972;2022-09-11T10:14:59;98295.56;;;24.96;46.57
35655;BME280;21773;50.010;19.972;2022-09-11T10:21:44;98302.94;;;25.13;46.71
35655;BME280;21773;50.010;19.972;2022-09-11T10:24:51;98308.09;;;25.23;46.38
35655;BME280;21773;50.010;19.972;2022-09-11T10:28:04;98300.13;;;25.30;45.84
35655;BME280;21773;50.010;19.972;2022-09-11T10:31:12;98313.06;;;25.38;45.73
35655;BME280;21773;50.010;19.972;2022-09-11T10:34:18;98300.38;;;25.45;45.47
35655;BME280;21773;50.010;19.972;2022-09-11T10:37:26;98302.94;;;25.51;44.68
35655;BME280;21773;50.010;19.972;2022-09-11T10:40:30;98303.94;;;25.55;44.95
35655;BME280;21773;50.010;19.972;2022-09-11T10:43:41;98298.53;;;25.58;45.14
35655;BME280;21773;50.010;19.972;2022-09-11T10:47:01;98298.22;;;25.60;44.85
35655;BME280;21773;50.010;19.972;2022-09-11T10:50:20;98294.59;;;25.68;45.13
35655;BME280;21773;50.010;19.972;2022-09-11T10:53:28;98289.59;;;25.61;44.50
35655;BME280;21773;50.010;19.972;2022-09-11T10:56:41;98295.78;;;25.58;44.19
35655;BME280;21773;50.010;19.972;2022-09-11T10:59:58;98284.06;;;25.61;44.19
35655;BME280;21773;50.010;19.972;2022-09-11T11:03:09;98301.41;;;25.70;44.24
35655;BME280;21773;50.010;19.972;2022-09-11T11:06:22;98292.25;;;25.78;43.80
35655;BME280;21773;50.010;19.972;2022-09-11T11:09:51;98293.13;;;25.91;43.60
35655;BME280;21773;50.010;19.972;2022-09-11T11:13:06;98304.78;;;25.97;43.05
35655;BME280;21773;50.010;19.972;2022-09-11T11:16:19;98305.91;;;25.96;42.82
35655;BME280;21773;50.010;19.972;2022-09-11T11:19:50;98313.06;;;25.97;43.43
35655;BME280;21773;50.010;19.972;2022-09-11T11:23:16;98313.38;;;25.95;43.59
35655;BME280;21773;50.010;19.972;2022-09-11T11:26:35;98314.19;;;25.96;43.83
35655;BME280;21773;50.010;19.972;2022-09-11T11:30:04;98315.81;;;25.97;43.92
35655;BME280;21773;50.010;19.972;2022-09-11T11:33:29;98322.03;;;25.94;44.17
35655;BME280;21773;50.010;19.972;2022-09-11T11:36:41;98289.16;;;25.80;44.74
35655;BME280;21773;50.010;19.972;2022-09-11T11:39:50;98303.34;;;25.91;44.69
35655;BME280;21773;50.010;19.972;2022-09-11T11:43:02;98298.72;;;25.82;44.46
35655;BME280;21773;50.010;19.972;2022-09-11T11:46:12;98311.78;;;25.94;44.60
35655;BME280;21773;50.010;19.972;2022-09-11T11:49:22;98310.97;;;25.94;44.42
35655;BME280;21773;50.010;19.972;2022-09-11T11:52:45;98294.19;;;25.78;44.83
35655;BME280;21773;50.010;19.972;2022-09-11T11:56:01;98312.31;;;25.87;44.76
35655;BME280;21773;50.010;19.972;2022-09-11T11:59:13;98308.00;;;25.78;44.96
35655;BME280;21773;50.010;19.972;2022-09-11T12:02:20;98321.38;;;25.67;45.25
35655;BME280;21773;50.010;19.972;2022-09-11T12:05:29;98315.25;;;25.62;45.59
35655;BME280;21773;50.010;19.972;2022-09-11T12:08:40;98309.59;;;25.58;45.77
35655;BME280;21773;50.010;19.972;2022-09-11T12:11:48;98320.13;;;25.56;45.97
35655;BME280;21773;50.010;19.972;2022-09-11T12:15:01;98298.75;;;25.44;45.92
35655;BME280;21773;50.010;19.972;2022-09-11T12:18:21;98311.22;;;25.59;45.81
35655;BME280;21773;50.010;19.972;2022-09-11T12:21:42;98306.63;;;25.63;45.46
35655;BME280;21773;50.010;19.972;2022-09-11T12:32:55;98308.47;;;26.01;45.18
35655;BME280;21773;50.010;19.972;2022-09-11T12:35:59;98316.97;;;26.16;44.38
35655;BME280;21773;50.010;19.972;2022-09-11T12:39:22;98312.94;;;26.35;43.93
35655;BME280;21773;50.010;19.972;2022-09-11T12:42:55;98306.56;;;26.55;42.82
35655;BME280;21773;50.010;19.972;2022-09-11T12:45:58;98296.97;;;26.73;42.52
35655;BME280;21773;50.010;19.972;2022-09-11T12:49:09;98304.19;;;26.98;41.86
35655;BME280;21773;50.010;19.972;2022-09-11T12:52:31;98270.75;;;26.91;40.49
35655;BME280;21773;50.010;19.972;2022-09-11T12:55:38;98289.31;;;27.27;40.11
35655;BME280;21773;50.010;19.972;2022-09-11T12:58:45;98288.75;;;27.34;39.85
35655;BME280;21773;50.010;19.972;2022-09-11T13:01:53;98288.75;;;27.34;38.88
35655;BME280;21773;50.010;19.972;2022-09-11T13:04:59;98283.34;;;27.25;39.22
35655;BME280;21773;50.010;19.972;2022-09-11T13:08:06;98276.75;;;27.17;39.59
35655;BME280;21773;50.010;19.972;2022-09-11T13:11:40;98289.00;;;27.17;39.75
35655;BME280;21773;50.010;19.972;2022-09-11T13:14:48;98289.34;;;27.15;39.76
35655;BME280;21773;50.010;19.972;2022-09-11T13:17:52;98284.84;;;27.10;39.73
35655;BME280;21773;50.010;19.972;2022-09-11T13:21:08;98297.28;;;27.04;40.05
35655;BME280;21773;50.010;19.972;2022-09-11T13:24:21;98270.25;;;26.77;40.83
35655;BME280;21773;50.010;19.972;2022-09-11T13:27:26;98286.25;;;26.84;41.14
35655;BME280;21773;50.010;19.972;2022-09-11T13:30:30;98289.38;;;26.82;41.79
35655;BME280;21773;50.010;19.972;2022-09-11T13:33:34;98280.50;;;26.77;41.73
35655;BME280;21773;50.010;19.972;2022-09-11T13:36:39;98289.66;;;26.68;42.37
35655;BME280;21773;50.010;19.972;2022-09-11T13:39:43;98253.75;;;26.36;42.77
35655;BME280;21773;50.010;19.972;2022-09-11T13:42:48;98277.41;;;26.45;43.14
35655;BME280;21773;50.010;19.972;2022-09-11T13:46:20;98276.19;;;26.34;43.59
35655;BME280;21773;50.010;19.972;2022-09-11T13:49:32;98270.47;;;26.18;44.08
35655;BME280;21773;50.010;19.972;2022-09-11T13:52:40;98245.16;;;25.96;44.29
35655;BME280;21773;50.010;19.972;2022-09-11T13:55:45;98275.88;;;25.94;44.39
35655;BME280;21773;50.010;19.972;2022-09-11T13:58:50;98284.69;;;25.87;45.11
35655;BME280;21773;50.010;19.972;2022-09-11T14:01:56;98281.81;;;25.84;45.54
35655;BME280;21773;50.010;19.972;2022-09-11T14:05:12;98277.09;;;25.84;46.26
35655;BME280;21773;50.010;19.972;2022-09-11T14:08:25;98272.50;;;25.88;46.26
35655;BME280;21773;50.010;19.972;2022-09-11T14:11:33;98270.69;;;25.93;46.56
35655;BME280;21773;50.010;19.972;2022-09-11T14:14:36;98267.84;;;26.01;46.46
35655;BME280;21773;50.010;19.972;2022-09-11T14:17:40;98276.06;;;26.10;46.35
35655;BME280;21773;50.010;19.972;2022-09-11T14:20:44;98273.25;;;26.18;45.86
35655;BME280;21773;50.010;19.972;2022-09-11T14:23:52;98280.66;;;26.26;45.71
35655;BME280;21773;50.010;19.972;2022-09-11T14:26:55;98277.81;;;26.35;45.27
35655;BME280;21773;50.010;19.972;2022-09-11T14:29:59;98269.09;;;26.45;44.92
35655;BME280;21773;50.010;19.972;2022-09-11T14:33:16;98265.78;;;26.52;44.72
35655;BME280;21773;50.010;19.972;2022-09-11T14:36:21;98256.16;;;26.58;44.09
35655;BME280;21773;50.010;19.972;2022-09-11T14:39:32;98254.97;;;26.59;43.98
35655;BME280;21773;50.010;19.972;2022-09-11T14:42:35;98251.19;;;26.63;43.69
35655;BME280;21773;50.010;19.972;2022-09-11T14:45:39;98255.22;;;26.66;44.18
35655;BME280;21773;50.010;19.972;2022-09-11T14:48:42;98255.56;;;26.64;44.30
35655;BME280;21773;50.010;19.972;2022-09-11T14:51:52;98253.50;;;26.61;43.63
35655;BME280;21773;50.010;19.972;2022-09-11T14:54:57;98264.28;;;26.54;42.59
35655;BME280;21773;50.010;19.972;2022-09-11T14:58:01;98264.38;;;26.46;42.20
35655;BME280;21773;50.010;19.972;2022-09-11T15:01:05;98262.38;;;26.34;42.67
35655;BME280;21773;50.010;19.972;2022-09-11T15:04:11;98281.00;;;26.25;43.03
35655;BME280;21773;50.010;19.972;2022-09-11T15:07:18;98293.59;;;26.14;43.99
35655;BME280;21773;50.010;19.972;2022-09-11T15:10:24;98289.94;;;26.01;44.29
35655;BME280;21773;50.010;19.972;2022-09-11T15:13:28;98298.03;;;25.85;45.20
35655;BME280;21773;50.010;19.972;2022-09-11T15:16:31;98316.66;;;25.68;45.33
35655;BME280;21773;50.010;19.972;2022-09-11T15:19:34;98294.66;;;25.51;46.14
35655;BME280;21773;50.010;19.972;2022-09-11T15:22:38;98303.84;;;25.34;46.38
35655;BME280;21773;50.010;19.972;2022-09-11T15:25:43;98301.81;;;25.14;46.49
35655;BME280;21773;50.010;19.972;2022-09-11T15:28:46;98293.78;;;25.00;46.93
35655;BME280;21773;50.010;19.972;2022-09-11T15:31:52;98299.47;;;24.86;46.87
35655;BME280;21773;50.010;19.972;2022-09-11T15:34:55;98293.50;;;24.76;46.75
35655;BME280;21773;50.010;19.972;2022-09-11T15:37:59;98302.75;;;24.71;46.29
35655;BME280;21773;50.010;19.972;2022-09-11T15:41:07;98296.91;;;24.64;46.42
35655;BME280;21773;50.010;19.972;2022-09-11T15:44:15;98294.50;;;24.54;46.69
35655;BME280;21773;50.010;19.972;2022-09-11T15:47:21;98300.50;;;24.56;46.89
35655;BME280;21773;50.010;19.972;2022-09-11T15:50:24;98305.38;;;24.50;47.02
35655;BME280;21773;50.010;19.972;2022-09-11T15:53:32;98310.75;;;24.47;47.10
35655;BME280;21773;50.010;19.972;2022-09-11T15:56:38;98320.63;;;24.39;47.43
35655;BME280;21773;50.010;19.972;2022-09-11T15:59:41;98320.16;;;24.37;47.59
35655;BME280;21773;50.010;19.972;2022-09-11T16:02:44;98319.50;;;24.32;47.70
35655;BME280;21773;50.010;19.972;2022-09-11T16:05:48;98315.44;;;24.29;47.57
35655;BME280;21773;50.010;19.972;2022-09-11T16:08:55;98314.81;;;24.24;47.25
35655;BME280;21773;50.010;19.972;2022-09-11T16:12:00;98318.19;;;24.21;47.27
35655;BME280;21773;50.010;19.972;2022-09-11T16:15:05;98318.34;;;24.15;47.11
35655;BME280;21773;50.010;19.972;2022-09-11T16:18:08;98323.03;;;24.15;47.02
35655;BME280;21773;50.010;19.972;2022-09-11T16:21:14;98318.03;;;24.08;46.91
35655;BME280;21773;50.010;19.972;2022-09-11T16:24:20;98328.03;;;24.04;46.54
35655;BME280;21773;50.010;19.972;2022-09-11T16:27:25;98320.44;;;24.01;46.61
35655;BME280;21773;50.010;19.972;2022-09-11T16:30:29;98327.72;;;23.97;46.77
35655;BME280;21773;50.010;19.972;2022-09-11T16:33:45;98329.31;;;23.90;47.03